Time;durP1;ratioP1;P1;durP2;ratioP2;P2;SDS_P1;SDS_P2;PMS_P1;PMS_P2;Temp;Humidity;BMP_temperature;BMP_pressure;BME280_temperature;BME280_humidity;BME280_pressure;Samples;Min_cycle;Max_cycle;Signal;HPM_P1;HPM_P2
2023/06/14 00:01:52;;;;;;;9.65;4.80;;;;;17.80;98205.00;;;;5070683;28;20474;-60
2023/06/14 00:04:20;;;;;;;6.00;5.18;;;;;17.70;98213.00;;;;5072427;28;20394;-61
2023/06/14 00:06:48;;;;;;;6.22;4.32;;;;;17.60;98199.00;;;;5072148;28;20044;-60
2023/06/14 00:09:17;;;;;;;5.82;5.20;;;;;17.70;98199.00;;;;5072112;28;20690;-60
2023/06/14 00:11:44;;;;;;;5.65;4.85;;;;;17.70;98202.00;;;;5072468;28;20040;-61
2023/06/14 00:14:11;;;;;;;6.93;4.82;;;;;17.80;98189.00;;;;5054876;28;20113;-59
2023/06/14 00:16:42;;;;;;;7.22;4.82;;;;;17.90;98194.00;;;;5071125;28;20044;-59
2023/06/14 00:19:10;;;;;;;5.45;4.30;;;;;17.80;98193.00;;;;5070994;28;20424;-57
2023/06/14 00:21:37;;;;;;;7.68;4.63;;;;;17.80;98183.00;;;;5072228;28;20040;-59
2023/06/14 00:24:04;;;;;;;5.30;4.53;;;;;17.80;98191.00;;;;5072180;28;20455;-60
2023/06/14 00:26:31;;;;;;;5.57;4.80;;;;;17.70;98186.00;;;;5072037;28;20041;-60
2023/06/14 00:28:58;;;;;;;5.93;5.30;;;;;17.80;98193.00;;;;5071944;28;20106;-61
2023/06/14 00:31:25;;;;;;;5.78;4.88;;;;;17.70;98187.00;;;;5070567;28;20092;-58
2023/06/14 00:33:56;;;;;;;6.85;4.68;;;;;17.70;98186.00;;;;5054214;28;20509;-59
2023/06/14 00:36:23;;;;;;;6.85;5.28;;;;;17.70;98185.00;;;;5071656;28;20071;-59
2023/06/14 00:38:49;;;;;;;5.65;4.75;;;;;17.70;98181.00;;;;5071910;28;20466;-59
2023/06/14 00:41:18;;;;;;;6.45;4.80;;;;;17.70;98192.00;;;;5070944;28;20413;-64
2023/06/14 00:43:45;;;;;;;6.38;5.10;;;;;17.70;98185.00;;;;5071945;28;20075;-58
2023/06/14 00:46:11;;;;;;;5.82;5.22;;;;;17.50;98192.00;;;;5070503;28;20131;-58
2023/06/14 00:48:39;;;;;;;6.45;4.78;;;;;17.30;98185.00;;;;5071309;28;20045;-58
2023/06/14 00:51:06;;;;;;;6.25;5.45;;;;;17.30;98199.00;;;;5070439;28;20044;-60
2023/06/14 00:53:36;;;;;;;5.97;4.90;;;;;17.30;98188.00;;;;5072067;28;20437;-60
2023/06/14 00:56:06;;;;;;;10.63;5.22;;;;;17.40;98196.00;;;;5070382;28;20051;-60
2023/06/14 00:58:35;;;;;;;9.95;5.90;;;;;17.40;98197.00;;;;5053941;28;20136;-60
2023/06/14 01:01:11;;;;;;;7.55;5.05;;;;;17.20;98197.00;;;;5054915;28;20079;-61
2023/06/14 01:03:39;;;;;;;10.50;5.63;;;;;17.10;98196.00;;;;5071867;28;20118;-59
2023/06/14 01:06:30;;;;;;;6.40;5.15;;;;;17.00;98195.00;;;;5070606;28;20086;-59
2023/06/14 01:09:00;;;;;;;5.57;5.00;;;;;16.90;98190.00;;;;5071937;28;20054;-61
2023/06/14 01:11:36;;;;;;;5.10;4.35;;;;;17.00;98201.00;;;;5072000;28;20448;-59
2023/06/14 01:14:05;;;;;;;7.55;5.22;;;;;17.00;98205.00;;;;5073627;28;20106;-59
2023/06/14 01:16:32;;;;;;;5.53;5.00;;;;;16.90;98207.00;;;;5076182;28;20072;-59
2023/06/14 01:18:59;;;;;;;6.55;5.40;;;;;16.80;98203.00;;;;5077174;28;20037;-59
2023/06/14 01:21:28;;;;;;;6.30;4.88;;;;;16.70;98211.00;;;;5081285;28;20036;-61
2023/06/14 01:23:55;;;;;;;5.55;5.00;;;;;16.60;98206.00;;;;5081561;28;20079;-61
2023/06/14 01:26:22;;;;;;;5.63;5.03;;;;;16.60;98209.00;;;;5080982;28;20127;-61
2023/06/14 01:28:52;;;;;;;5.57;4.90;;;;;16.50;98212.00;;;;5081062;28;20048;-61
2023/06/14 01:31:24;;;;;;;5.85;5.10;;;;;16.50;98211.00;;;;5082408;28;20044;-61
2023/06/14 01:33:51;;;;;;;8.50;5.13;;;;;16.50;98215.00;;;;5082775;28;20144;-61
2023/06/14 01:36:22;;;;;;;6.00;5.35;;;;;16.40;98212.00;;;;5081647;28;20060;-60
2023/06/14 01:38:50;;;;;;;5.93;5.32;;;;;16.30;98211.00;;;;5081379;28;20051;-60
2023/06/14 01:41:21;;;;;;;6.32;5.50;;;;;16.30;98205.00;;;;5082326;28;20049;-62
2023/06/14 01:43:49;;;;;;;5.80;5.20;;;;;16.30;98215.00;;;;5082000;28;20068;-61
2023/06/14 01:46:17;;;;;;;6.68;5.20;;;;;16.40;98219.00;;;;5068325;28;20083;-60
2023/06/14 01:48:44;;;;;;;8.63;6.20;;;;;16.50;98221.00;;;;5085298;28;20052;-61
2023/06/14 01:51:10;;;;;;;6.75;5.22;;;;;16.50;98217.00;;;;5086900;28;20401;-60
2023/06/14 01:53:37;;;;;;;6.53;5.47;;;;;16.40;98227.00;;;;5087707;28;20063;-61
2023/06/14 01:56:04;;;;;;;7.03;6.10;;;;;16.20;98228.00;;;;5091604;28;20053;-62
2023/06/14 01:58:31;;;;;;;5.70;5.20;;;;;16.20;98229.00;;;;5090014;28;20049;-62
2023/06/14 02:00:58;;;;;;;6.63;5.70;;;;;16.20;98222.00;;;;5086850;28;20111;-62
2023/06/14 02:03:24;;;;;;;6.03;5.38;;;;;16.10;98220.00;;;;5088884;28;20056;-62
2023/06/14 02:05:52;;;;;;;5.95;5.03;;;;;16.10;98212.00;;;;5088133;28;20063;-61
2023/06/14 02:08:18;;;;;;;5.43;4.90;;;;;16.20;98216.00;;;;5087525;28;20063;-60
2023/06/14 02:10:45;;;;;;;6.03;5.00;;;;;16.20;98216.00;;;;5085903;28;20124;-59
2023/06/14 02:13:13;;;;;;;6.10;5.10;;;;;16.20;98223.00;;;;5087060;28;20063;-61
2023/06/14 02:15:40;;;;;;;6.32;5.43;;;;;16.10;98225.00;;;;5085433;28;20048;-60
2023/06/14 02:18:06;;;;;;;6.05;4.93;;;;;16.00;98217.00;;;;5091147;28;20075;-61
2023/06/14 02:20:33;;;;;;;7.35;5.60;;;;;15.90;98224.00;;;;5092473;28;20109;-62
2023/06/14 02:23:00;;;;;;;6.07;5.47;;;;;15.70;98224.00;;;;5085477;28;20072;-61
2023/06/14 02:25:30;;;;;;;6.93;5.57;;;;;15.60;98226.00;;;;5067194;28;20044;-61
2023/06/14 02:27:57;;;;;;;6.82;5.60;;;;;15.60;98222.00;;;;5080595;28;20117;-61
2023/06/14 02:30:23;;;;;;;8.63;5.40;;;;;15.60;98224.00;;;;5080866;28;20143;-62
2023/06/14 02:32:51;;;;;;;6.28;4.85;;;;;15.60;98228.00;;;;5080808;28;20531;-61
2023/06/14 02:35:18;;;;;;;6.00;5.40;;;;;15.50;98215.00;;;;5080326;28;20036;-61
2023/06/14 02:37:44;;;;;;;7.55;5.57;;;;;15.50;98219.00;;;;5073075;28;20528;-60
2023/06/14 02:40:12;;;;;;;6.18;5.57;;;;;15.60;98217.00;;;;5074479;28;20041;-60
2023/06/14 02:42:39;;;;;;;6.78;5.63;;;;;15.60;98225.00;;;;5074414;28;20044;-61
2023/06/14 02:45:07;;;;;;;5.78;4.70;;;;;15.70;98220.00;;;;5073278;28;20048;-60
2023/06/14 02:47:33;;;;;;;7.38;5.95;;;;;15.60;98226.00;;;;5074071;28;20198;-60
2023/06/14 02:50:00;;;;;;;6.82;5.45;;;;;15.60;98221.00;;;;5073754;28;20136;-60
2023/06/14 02:52:27;;;;;;;6.32;5.07;;;;;15.60;98222.00;;;;5072705;28;20135;-60
2023/06/14 02:54:54;;;;;;;6.70;5.35;;;;;15.70;98224.00;;;;5072638;28;20054;-59
2023/06/14 02:57:22;;;;;;;7.80;5.13;;;;;15.70;98235.00;;;;5072509;28;20048;-60
2023/06/14 02:59:49;;;;;;;8.48;5.90;;;;;15.70;98226.00;;;;5072712;28;20143;-59
2023/06/14 03:02:15;;;;;;;6.80;6.13;;;;;15.60;98227.00;;;;5072458;28;20078;-59
2023/06/14 03:04:44;;;;;;;8.30;5.68;;;;;15.60;98222.00;;;;5072232;28;20048;-60
2023/06/14 03:07:19;;;;;;;6.35;5.55;;;;;15.50;98227.00;;;;5072186;28;20113;-60
2023/06/14 03:09:48;;;;;;;14.35;10.02;;;;;15.60;98230.00;;;;5071886;28;20154;-60
2023/06/14 03:12:15;;;;;;;8.80;6.25;;;;;15.70;98230.00;;;;5082467;28;20098;-60
2023/06/14 03:14:46;;;;;;;10.82;6.45;;;;;15.70;98226.00;;;;5083868;28;20413;-60
2023/06/14 03:17:17;;;;;;;14.13;7.90;;;;;15.60;98232.00;;;;5074794;28;20093;-60
2023/06/14 03:19:44;;;;;;;7.60;6.15;;;;;15.40;98234.00;;;;5072437;28;20044;-60
2023/06/14 03:22:12;;;;;;;6.55;5.60;;;;;15.50;98230.00;;;;5071961;28;20131;-59
2023/06/14 03:24:41;;;;;;;11.40;6.45;;;;;15.40;98231.00;;;;5072139;28;20068;-59
2023/06/14 03:27:10;;;;;;;7.32;5.85;;;;;15.50;98238.00;;;;5073385;28;20050;-59
2023/06/14 03:29:41;;;;;;;8.90;6.10;;;;;15.50;98240.00;;;;5071964;28;20429;-58
2023/06/14 03:32:08;;;;;;;7.18;6.07;;;;;15.50;98241.00;;;;5072661;28;20048;-59
2023/06/14 03:34:42;;;;;;;6.60;5.90;;;;;15.50;98246.00;;;;5071923;28;20048;-59
2023/06/14 03:37:15;;;;;;;;;;;;;15.30;98244.00;;;;5072821;28;20078;-61
2023/06/14 03:39:46;;;;;;;9.80;5.45;;;;;15.20;98246.00;;;;5071529;28;19920;-59
2023/06/14 03:42:16;;;;;;;6.45;5.65;;;;;15.10;98244.00;;;;5072760;28;20068;-59
2023/06/14 03:44:44;;;;;;;7.18;5.63;;;;;15.20;98241.00;;;;5071418;28;20097;-60
2023/06/14 03:47:11;;;;;;;9.15;5.65;;;;;15.20;98242.00;;;;5071620;28;20044;-59
2023/06/14 03:49:38;;;;;;;7.82;5.78;;;;;15.20;98252.00;;;;5071438;28;20102;-60
2023/06/14 03:52:05;;;;;;;6.65;5.95;;;;;15.30;98255.00;;;;5072502;28;20044;-60
2023/06/14 03:54:32;;;;;;;6.65;6.05;;;;;15.30;98253.00;;;;5071501;28;20079;-60
2023/06/14 03:57:02;;;;;;;9.23;6.25;;;;;15.30;98251.00;;;;5055014;28;20681;-60
2023/06/14 03:59:29;;;;;;;8.45;6.03;;;;;15.20;98255.00;;;;5070987;28;20048;-60
2023/06/14 04:01:55;;;;;;;11.98;6.15;;;;;15.20;98257.00;;;;5070956;28;20044;-60
2023/06/14 04:04:28;;;;;;;11.07;9.90;;;;;15.30;98254.00;;;;5071027;28;20045;-60
2023/06/14 04:06:58;;;;;;;9.10;6.30;;;;;15.50;98258.00;;;;5070892;28;20056;-60
2023/06/14 04:09:24;;;;;;;8.95;6.78;;;;;15.60;98259.00;;;;5054436;28;20409;-60
2023/06/14 04:11:52;;;;;;;9.35;7.22;;;;;15.60;98259.00;;;;5070848;28;20047;-60
2023/06/14 04:14:19;;;;;;;10.05;6.22;;;;;15.70;98259.00;;;;5072017;28;20112;-60
2023/06/14 04:16:47;;;;;;;9.68;6.28;;;;;15.60;98265.00;;;;5070699;28;20139;-60
2023/06/14 04:19:16;;;;;;;9.05;6.75;;;;;15.60;98262.00;;;;5070821;28;20479;-60
2023/06/14 04:21:42;;;;;;;10.85;7.10;;;;;15.70;98266.00;;;;5070742;28;20040;-59
2023/06/14 04:24:13;;;;;;;7.97;6.45;;;;;15.90;98271.00;;;;5070702;28;20412;-59
2023/06/14 04:26:53;;;;;;;8.70;7.05;;;;;15.90;98273.00;;;;5071013;28;20048;-60
2023/06/14 04:29:20;;;;;;;7.80;6.13;;;;;15.90;98278.00;;;;5070739;28;20040;-58
2023/06/14 04:31:58;;;;;;;7.35;6.30;;;;;16.00;98278.00;;;;5055436;28;20070;-60
2023/06/14 04:34:29;;;;;;;6.93;6.18;;;;;16.00;98284.00;;;;5070997;28;20103;-63
2023/06/14 04:36:58;;;;;;;7.40;6.07;;;;;16.10;98286.00;;;;5070928;28;20053;-60
2023/06/14 04:39:42;;;;;;;11.73;7.20;;;;;16.10;98278.00;;;;5071112;28;20056;-59
2023/06/14 04:42:11;;;;;;;9.63;7.72;;;;;16.10;98275.00;;;;5070969;28;20506;-59
2023/06/14 04:44:39;;;;;;;9.65;7.25;;;;;16.20;98283.00;;;;5070759;28;20524;-59
2023/06/14 04:47:06;;;;;;;8.52;7.00;;;;;16.30;98299.00;;;;5071410;28;20048;-60
2023/06/14 04:49:34;;;;;;;8.77;7.15;;;;;16.50;98305.00;;;;5079021;28;20043;-59
2023/06/14 04:52:01;;;;;;;9.73;7.60;;;;;16.50;98296.00;;;;5078177;28;20174;-58
2023/06/14 04:54:37;;;;;;;8.80;6.80;;;;;16.60;98295.00;;;;5079323;28;20108;-60
2023/06/14 04:57:07;;;;;;;8.63;7.45;;;;;16.80;98299.00;;;;5078104;28;20048;-59
2023/06/14 04:59:35;;;;;;;11.40;7.57;;;;;16.80;98299.00;;;;5077420;28;20528;-60
2023/06/14 05:02:02;;;;;;;9.68;7.15;;;;;16.90;98305.00;;;;5078980;28;20082;-60
2023/06/14 05:04:28;;;;;;;9.50;7.82;;;;;17.00;98308.00;;;;5077534;28;20075;-60
2023/06/14 05:06:57;;;;;;;9.90;7.10;;;;;17.10;98314.00;;;;5077467;28;20052;-59
2023/06/14 05:09:24;;;;;;;8.93;6.93;;;;;17.30;98316.00;;;;5077725;28;20047;-60
2023/06/14 05:11:51;;;;;;;10.63;7.43;;;;;17.40;98315.00;;;;5078766;28;20119;-61
2023/06/14 05:14:18;;;;;;;10.70;6.88;;;;;17.40;98315.00;;;;5061048;28;20447;-59
2023/06/14 05:16:46;;;;;;;8.98;6.75;;;;;17.50;98318.00;;;;5077385;28;20071;-60
2023/06/14 05:19:12;;;;;;;10.43;7.03;;;;;17.50;98317.00;;;;5079108;28;20098;-58
2023/06/14 05:21:39;;;;;;;7.47;6.30;;;;;17.60;98317.00;;;;5079179;28;20044;-59
2023/06/14 05:24:09;;;;;;;8.48;6.43;;;;;17.70;98321.00;;;;5079271;28;20479;-61
2023/06/14 05:26:36;;;;;;;7.70;6.10;;;;;17.90;98326.00;;;;5078599;28;20044;-60
2023/06/14 05:29:03;;;;;;;11.55;6.25;;;;;18.00;98325.00;;;;5078382;28;20509;-59
2023/06/14 05:31:30;;;;;;;9.20;6.25;;;;;18.10;98317.00;;;;5078866;28;20044;-59
2023/06/14 05:33:56;;;;;;;8.18;6.10;;;;;18.30;98327.00;;;;5077234;28;20059;-62
2023/06/14 05:36:23;;;;;;;9.07;6.40;;;;;18.40;98321.00;;;;5077975;28;20090;-61
2023/06/14 05:38:59;;;;;;;7.32;5.90;;;;;18.50;98321.00;;;;5080114;28;20050;-60
2023/06/14 05:41:26;;;;;;;12.50;6.63;;;;;18.70;98321.00;;;;5077264;28;20040;-60
2023/06/14 05:43:54;;;;;;;14.20;6.35;;;;;18.80;98327.00;;;;5076784;28;20076;-60
2023/06/14 05:46:24;;;;;;;12.80;6.20;;;;;19.00;98326.00;;;;5076959;28;20064;-60
2023/06/14 05:48:54;;;;;;;10.35;6.03;;;;;19.10;98320.00;;;;5078265;28;20056;-60
2023/06/14 05:51:24;;;;;;;9.55;5.95;;;;;19.20;98334.00;;;;5077274;28;20061;-60
2023/06/14 05:53:52;;;;;;;10.18;5.78;;;;;19.20;98328.00;;;;5078197;28;20048;-60
2023/06/14 05:56:19;;;;;;;12.63;8.25;;;;;19.30;98334.00;;;;5078093;28;20059;-61
2023/06/14 05:58:46;;;;;;;9.98;6.18;;;;;19.40;98328.00;;;;5076457;28;20455;-60
2023/06/14 06:01:13;;;;;;;11.57;6.80;;;;;19.50;98335.00;;;;5074480;28;20539;-60
2023/06/14 06:03:41;;;;;;;12.60;6.55;;;;;19.60;98331.00;;;;5075120;28;20052;-61
2023/06/14 06:06:08;;;;;;;7.50;5.55;;;;;19.70;98336.00;;;;5074733;28;20040;-61
2023/06/14 06:08:34;;;;;;;10.60;6.75;;;;;19.70;98335.00;;;;5074661;28;20074;-62
2023/06/14 06:11:01;;;;;;;10.68;6.20;;;;;19.80;98333.00;;;;5074337;28;20062;-60
2023/06/14 06:13:28;;;;;;;10.20;5.60;;;;;19.80;98336.00;;;;5074409;28;20055;-60
2023/06/14 06:15:56;;;;;;;11.52;8.00;;;;;19.90;98344.00;;;;5074608;28;20075;-61
2023/06/14 06:18:23;;;;;;;11.10;6.18;;;;;20.00;98343.00;;;;5074480;28;20044;-61
2023/06/14 06:20:51;;;;;;;6.00;5.25;;;;;20.20;98340.00;;;;5073218;28;20054;-61
2023/06/14 06:23:17;;;;;;;8.50;5.38;;;;;20.30;98343.00;;;;5056693;28;20037;-61
2023/06/14 06:25:44;;;;;;;7.80;4.55;;;;;20.50;98347.00;;;;5074458;28;20486;-61
2023/06/14 06:28:11;;;;;;;6.75;4.55;;;;;20.60;98342.00;;;;5074232;28;20509;-61
2023/06/14 06:30:38;;;;;;;7.82;4.38;;;;;20.60;98354.00;;;;5074112;28;20110;-61
2023/06/14 06:33:05;;;;;;;6.85;4.45;;;;;20.60;98353.00;;;;5073145;28;20068;-61
2023/06/14 06:35:32;;;;;;;9.18;4.65;;;;;20.70;98362.00;;;;5074339;28;20059;-61
2023/06/14 06:38:00;;;;;;;7.80;4.72;;;;;20.70;98360.00;;;;5073170;28;20049;-61
2023/06/14 06:40:27;;;;;;;4.40;3.90;;;;;20.80;98361.00;;;;5073470;28;20643;-61
2023/06/14 06:42:54;;;;;;;5.18;4.35;;;;;20.90;98368.00;;;;5072850;28;20036;-61
2023/06/14 06:45:23;;;;;;;7.45;4.20;;;;;20.90;98373.00;;;;5072683;28;20094;-58
2023/06/14 06:47:51;;;;;;;8.10;4.03;;;;;20.90;98363.00;;;;5072855;28;20044;-58
2023/06/14 06:50:19;;;;;;;11.00;4.65;;;;;21.00;98384.00;;;;5073843;28;20082;-60
2023/06/14 06:52:46;;;;;;;10.18;4.53;;;;;21.00;98380.00;;;;5073754;28;20494;-59
2023/06/14 06:55:13;;;;;;;5.45;4.65;;;;;20.90;98384.00;;;;5073725;28;20115;-59
2023/06/14 06:57:40;;;;;;;6.63;4.38;;;;;21.00;98387.00;;;;5073714;28;20044;-59
2023/06/14 07:00:09;;;;;;;6.38;4.43;;;;;21.00;98388.00;;;;5073364;28;20048;-61
2023/06/14 07:02:36;;;;;;;7.82;4.65;;;;;21.00;98388.00;;;;5073870;28;20484;-59
2023/06/14 07:05:04;;;;;;;8.63;4.88;;;;;21.10;98383.00;;;;5072819;28;20045;-60
2023/06/14 07:07:31;;;;;;;5.90;4.63;;;;;21.10;98390.00;;;;5073587;28;20048;-62
2023/06/14 07:09:57;;;;;;;7.75;4.50;;;;;21.20;98397.00;;;;5073455;28;20127;-59
2023/06/14 07:12:24;;;;;;;6.05;4.03;;;;;21.20;98391.00;;;;5072220;28;20106;-61
2023/06/14 07:14:51;;;;;;;7.88;4.80;;;;;21.30;98399.00;;;;5073517;28;20106;-61
2023/06/14 07:17:18;;;;;;;5.75;4.22;;;;;21.40;98407.00;;;;5073779;28;20139;-59
2023/06/14 07:19:44;;;;;;;7.30;5.03;;;;;21.40;98405.00;;;;5076412;28;20044;-59
2023/06/14 07:22:13;;;;;;;7.32;4.50;;;;;21.50;98401.00;;;;5080295;28;20052;-60
2023/06/14 07:24:40;;;;;;;7.90;3.97;;;;;21.60;98405.00;;;;5079910;28;20128;-60
2023/06/14 07:27:07;;;;;;;4.90;4.38;;;;;21.70;98408.00;;;;5073309;28;20490;-61
2023/06/14 07:29:34;;;;;;;6.57;4.57;;;;;21.70;98410.00;;;;5072911;28;20094;-60
2023/06/14 07:32:01;;;;;;;7.32;3.95;;;;;21.70;98410.00;;;;5073203;28;20505;-60
2023/06/14 07:34:28;;;;;;;11.35;4.57;;;;;21.80;98412.00;;;;5072987;28;20383;-60
2023/06/14 07:36:54;;;;;;;7.00;5.15;;;;;21.90;98408.00;;;;5072821;28;20131;-60
2023/06/14 07:39:21;;;;;;;5.88;4.13;;;;;22.00;98408.00;;;;5072764;28;20596;-60
2023/06/14 07:41:48;;;;;;;5.55;4.63;;;;;22.00;98402.00;;;;5072963;28;20506;-60
2023/06/14 07:44:15;;;;;;;9.05;4.40;;;;;22.20;98406.00;;;;5072851;28;20036;-60
2023/06/14 07:46:43;;;;;;;9.38;4.22;;;;;22.40;98412.00;;;;5072772;28;20056;-61
2023/06/14 07:49:10;;;;;;;8.65;4.88;;;;;22.40;98408.00;;;;5071249;28;20123;-61
2023/06/14 07:51:37;;;;;;;4.90;3.97;;;;;22.40;98411.00;;;;5072525;28;20044;-60
2023/06/14 07:54:04;;;;;;;9.48;4.32;;;;;22.40;98408.00;;;;5071338;28;20049;-59
2023/06/14 07:56:31;;;;;;;11.32;4.18;;;;;22.30;98402.00;;;;5072747;28;20033;-59
2023/06/14 07:59:00;;;;;;;6.55;4.15;;;;;22.30;98404.00;;;;5072565;28;20703;-60
2023/06/14 08:01:28;;;;;;;8.05;4.03;;;;;22.30;98406.00;;;;5072516;28;20044;-60
2023/06/14 08:03:54;;;;;;;5.03;4.25;;;;;22.40;98402.00;;;;5072400;28;20528;-60
2023/06/14 08:06:21;;;;;;;10.13;4.63;;;;;22.60;98416.00;;;;5072340;28;20133;-60
2023/06/14 08:08:47;;;;;;;7.53;4.15;;;;;22.60;98411.00;;;;5071853;28;20040;-61
2023/06/14 08:11:14;;;;;;;8.30;3.65;;;;;22.60;98398.00;;;;5072227;28;20036;-60
2023/06/14 08:13:41;;;;;;;4.75;4.15;;;;;22.70;98394.00;;;;5071608;28;20505;-59
2023/06/14 08:16:07;;;;;;;6.63;3.83;;;;;22.70;98400.00;;;;5072869;28;20451;-60
2023/06/14 08:18:34;;;;;;;6.70;3.90;;;;;22.70;98401.00;;;;5072599;28;20068;-60
2023/06/14 08:21:00;;;;;;;4.60;3.83;;;;;22.90;98400.00;;;;5072638;28;20458;-60
2023/06/14 08:23:27;;;;;;;6.38;3.90;;;;;23.00;98402.00;;;;5071501;28;20064;-60
2023/06/14 08:25:54;;;;;;;4.75;4.05;;;;;23.10;98404.00;;;;5072224;28;20064;-60
2023/06/14 08:28:20;;;;;;;6.72;4.15;;;;;23.10;98406.00;;;;5072439;28;20044;-60
2023/06/14 08:30:47;;;;;;;8.18;4.22;;;;;23.30;98403.00;;;;5070666;28;20094;-60
2023/06/14 08:33:13;;;;;;;5.45;3.85;;;;;23.30;98412.00;;;;5072197;28;20045;-60
2023/06/14 08:35:43;;;;;;;8.55;4.20;;;;;23.40;98402.00;;;;5071031;28;20059;-60
2023/06/14 08:38:11;;;;;;;7.50;3.80;;;;;23.40;98399.00;;;;5072204;28;20049;-60
2023/06/14 08:40:39;;;;;;;7.45;4.53;;;;;23.20;98405.00;;;;5070605;28;20055;-60
2023/06/14 08:43:07;;;;;;;6.20;4.72;;;;;23.30;98409.00;;;;5072059;28;20485;-60
2023/06/14 08:45:33;;;;;;;5.43;3.88;;;;;23.40;98416.00;;;;5071997;28;20068;-59
2023/06/14 08:48:01;;;;;;;8.32;4.40;;;;;23.30;98409.00;;;;5072629;28;20131;-60
2023/06/14 08:50:31;;;;;;;8.00;4.20;;;;;23.20;98416.00;;;;5073306;28;20040;-60
2023/06/14 08:53:02;;;;;;;4.80;4.03;;;;;23.30;98417.00;;;;5072279;28;20044;-59
2023/06/14 08:55:31;;;;;;;6.78;4.03;;;;;23.10;98415.00;;;;5070799;28;20501;-60
2023/06/14 08:58:01;;;;;;;6.35;3.80;;;;;23.20;98417.00;;;;5072099;28;20465;-60
2023/06/14 09:00:28;;;;;;;9.50;3.85;;;;;23.30;98413.00;;;;5072225;28;20036;-59
2023/06/14 09:02:57;;;;;;;7.13;3.65;;;;;23.50;98420.00;;;;5072055;28;20095;-59
2023/06/14 09:05:26;;;;;;;7.13;3.63;;;;;23.60;98416.00;;;;5072289;28;20048;-59
2023/06/14 09:07:54;;;;;;;7.10;3.40;;;;;23.80;98416.00;;;;5070734;28;20052;-59
2023/06/14 09:10:21;;;;;;;6.00;3.17;;;;;23.60;98413.00;;;;5070622;28;20049;-59
2023/06/14 09:12:48;;;;;;;9.23;3.80;;;;;23.70;98424.00;;;;5071932;28;20041;-59
2023/06/14 09:15:16;;;;;;;5.40;3.60;;;;;23.80;98415.00;;;;5070597;28;20086;-59
2023/06/14 09:17:43;;;;;;;6.03;3.13;;;;;23.90;98417.00;;;;5071796;28;20127;-59
2023/06/14 09:20:10;;;;;;;4.22;3.47;;;;;23.90;98420.00;;;;5069583;28;20045;-59
2023/06/14 09:22:38;;;;;;;5.60;2.90;;;;;23.90;98427.00;;;;5071225;28;20105;-59
2023/06/14 09:25:05;;;;;;;4.45;3.17;;;;;24.10;98425.00;;;;5071841;28;20040;-59
2023/06/14 09:27:32;;;;;;;5.13;3.03;;;;;24.00;98432.00;;;;5071613;28;20090;-59
2023/06/14 09:30:05;;;;;;;4.65;3.70;;;;;24.00;98424.00;;;;5072094;28;20044;-60
2023/06/14 09:32:36;;;;;;;7.57;3.72;;;;;24.00;98424.00;;;;5071331;28;20048;-60
2023/06/14 09:35:04;;;;;;;6.10;4.30;;;;;24.00;98429.00;;;;5072730;28;20048;-60
2023/06/14 09:37:32;;;;;;;8.48;3.33;;;;;24.10;98434.00;;;;5073803;28;20129;-59
2023/06/14 09:39:59;;;;;;;7.95;2.78;;;;;24.00;98437.00;;;;5073539;28;20050;-60
2023/06/14 09:42:26;;;;;;;4.45;3.13;;;;;24.10;98433.00;;;;5073962;28;20041;-59
2023/06/14 09:44:54;;;;;;;3.67;2.80;;;;;24.10;98444.00;;;;5075260;28;20055;-59
2023/06/14 09:47:22;;;;;;;3.20;2.67;;;;;24.10;98424.00;;;;5057267;28;20140;-60
2023/06/14 09:49:50;;;;;;;6.50;3.22;;;;;24.30;98436.00;;;;5074974;28;20083;-60
2023/06/14 09:52:18;;;;;;;3.63;2.92;;;;;24.20;98433.00;;;;5075026;28;20167;-60
2023/06/14 09:54:47;;;;;;;6.43;3.08;;;;;24.20;98435.00;;;;5075209;28;20056;-59
2023/06/14 09:57:16;;;;;;;5.30;2.72;;;;;24.30;98436.00;;;;5075025;28;20079;-60
2023/06/14 09:59:47;;;;;;;4.35;2.75;;;;;24.30;98441.00;;;;5074664;28;20119;-59
2023/06/14 10:02:24;;;;;;;5.13;2.33;;;;;24.30;98446.00;;;;5074822;28;20115;-59
2023/06/14 10:05:00;;;;;;;3.03;2.58;;;;;24.20;98446.00;;;;5073702;28;20436;-59
2023/06/14 10:07:31;;;;;;;3.55;2.42;;;;;24.20;98445.00;;;;5073505;28;20045;-58
2023/06/14 10:09:59;;;;;;;2.83;2.53;;;;;24.10;98449.00;;;;5040524;28;20137;-62
2023/06/14 10:12:26;;;;;;;4.00;2.60;;;;;24.20;98448.00;;;;5073240;28;20081;-59
2023/06/14 10:14:53;;;;;;;4.68;2.72;;;;;24.30;98443.00;;;;5074600;28;20044;-60
2023/06/14 10:17:48;;;;;;;5.70;2.85;;;;;24.50;98444.00;;;;5073569;28;20064;-59
2023/06/14 10:20:30;;;;;;;3.05;2.58;;;;;24.20;98443.00;;;;5056444;28;20048;-58
2023/06/14 10:23:09;;;;;;;4.38;2.67;;;;;24.40;98448.00;;;;5074482;28;20052;-59
2023/06/14 10:25:35;;;;;;;8.10;2.78;;;;;24.50;98455.00;;;;5073215;28;20072;-59
2023/06/14 10:28:13;;;;;;;4.28;2.60;;;;;24.20;98444.00;;;;5074190;28;20060;-60
2023/06/14 10:31:04;;;;;;;3.00;2.13;;;;;24.20;98425.00;;;;5073065;28;20155;-57
2023/06/14 10:33:32;;;;;;;4.00;2.30;;;;;24.30;98450.00;;;;5074271;28;20040;-61
2023/06/14 10:36:21;;;;;;;7.40;2.38;;;;;24.30;98444.00;;;;5074108;28;20050;-59
2023/06/14 10:39:00;;;;;;;5.10;2.88;;;;;24.40;98440.00;;;;5065302;28;20101;-62
2023/06/14 10:41:28;;;;;;;3.33;2.50;;;;;24.50;98439.00;;;;5075317;28;20074;-60
2023/06/14 10:44:13;;;;;;;2.83;2.42;;;;;24.60;98440.00;;;;5077076;28;20457;-61
2023/06/14 10:46:45;;;;;;;4.82;2.75;;;;;24.50;98439.00;;;;5075692;28;20521;-62
2023/06/14 10:49:12;;;;;;;3.30;2.50;;;;;24.80;98447.00;;;;5078198;28;20044;-61
2023/06/14 10:51:46;;;;;;;3.40;2.33;;;;;24.80;98438.00;;;;5077155;28;20060;-61
2023/06/14 10:54:15;;;;;;;6.00;2.50;;;;;24.80;98439.00;;;;5075068;28;20477;-59
2023/06/14 10:56:50;;;;;;;2.60;2.30;;;;;24.80;98441.00;;;;5073753;28;20485;-61
2023/06/14 10:59:19;;;;;;;3.78;2.85;;;;;25.00;98444.00;;;;5073468;28;20082;-58
2023/06/14 11:01:54;;;;;;;4.32;2.67;;;;;24.90;98446.00;;;;5073559;28;20046;-60
2023/06/14 11:04:24;;;;;;;4.75;2.55;;;;;24.90;98447.00;;;;5073660;28;20036;-59
2023/06/14 11:06:53;;;;;;;3.90;2.38;;;;;24.80;98442.00;;;;5072036;28;20599;-59
2023/06/14 11:09:41;;;;;;;4.50;2.60;;;;;24.80;98450.00;;;;5073379;28;20135;-60
2023/06/14 11:12:13;;;;;;;5.22;2.60;;;;;24.70;98440.00;;;;5055864;28;20398;-59
2023/06/14 11:14:40;;;;;;;4.15;2.70;;;;;24.90;98443.00;;;;5072773;28;20060;-59
2023/06/14 11:17:06;;;;;;;3.53;2.38;;;;;25.30;98444.00;;;;5072663;28;20044;-60
2023/06/14 11:19:33;;;;;;;4.65;2.30;;;;;25.20;98438.00;;;;5073419;28;20162;-58
2023/06/14 11:22:00;;;;;;;5.90;2.47;;;;;25.40;98441.00;;;;5073572;28;20491;-60
2023/06/14 11:24:26;;;;;;;4.15;2.50;;;;;25.40;98442.00;;;;5073280;28;20041;-60
2023/06/14 11:26:56;;;;;;;5.65;2.70;;;;;25.10;98444.00;;;;5072144;28;20066;-60
2023/06/14 11:29:23;;;;;;;8.20;2.65;;;;;25.00;98436.00;;;;5074437;28;20045;-60
2023/06/14 11:31:50;;;;;;;3.40;2.35;;;;;25.10;98442.00;;;;5083449;28;20113;-58
2023/06/14 11:34:17;;;;;;;5.13;2.60;;;;;25.20;98441.00;;;;5080087;28;20098;-60
2023/06/14 11:36:46;;;;;;;2.55;2.35;;;;;25.20;98444.00;;;;5074727;28;20166;-60
2023/06/14 11:39:13;;;;;;;4.28;2.60;;;;;25.10;98445.00;;;;5073210;28;20044;-60
2023/06/14 11:41:42;;;;;;;3.90;2.28;;;;;25.00;98430.00;;;;5073081;28;20413;-58
2023/06/14 11:44:09;;;;;;;2.70;2.15;;;;;25.10;98435.00;;;;5072992;28;20124;-60
2023/06/14 11:46:36;;;;;;;6.35;2.25;;;;;25.20;98437.00;;;;5073210;28;20106;-60
2023/06/14 11:49:04;;;;;;;4.72;2.58;;;;;25.10;98429.00;;;;5071355;28;20044;-60
2023/06/14 11:51:33;;;;;;;4.22;2.10;;;;;25.00;98429.00;;;;5073150;28;20505;-60
2023/06/14 11:54:02;;;;;;;3.88;2.45;;;;;25.20;98433.00;;;;5078305;28;20072;-60
2023/06/14 11:56:31;;;;;;;2.53;2.33;;;;;25.30;98426.00;;;;5077179;28;20418;-61
2023/06/14 11:58:59;;;;;;;5.10;2.13;;;;;25.30;98425.00;;;;5075641;28;20048;-61
2023/06/14 12:01:25;;;;;;;4.20;2.17;;;;;25.60;98428.00;;;;5076038;28;20124;-61
2023/06/14 12:03:53;;;;;;;4.43;2.50;;;;;25.70;98424.00;;;;5075900;28;20051;-60
2023/06/14 12:06:35;;;;;;;2.20;1.98;;;;;25.70;98427.00;;;;5076738;28;20063;-61
2023/06/14 12:09:04;;;;;;;3.93;2.00;;;;;25.50;98426.00;;;;5077702;28;20048;-61
2023/06/14 12:11:35;;;;;;;4.30;2.10;;;;;25.50;98426.00;;;;5076828;28;20052;-60
2023/06/14 12:14:05;;;;;;;7.10;2.53;;;;;25.60;98441.00;;;;5077738;28;20218;-60
2023/06/14 12:16:34;;;;;;;6.03;2.60;;;;;25.60;98429.00;;;;5077511;28;20103;-60
2023/06/14 12:19:13;;;;;;;3.90;2.83;;;;;25.80;98426.00;;;;5077620;28;20139;-61
2023/06/14 12:21:43;;;;;;;4.78;2.10;;;;;26.10;98431.00;;;;5077520;28;20504;-61
2023/06/14 12:24:12;;;;;;;5.50;2.10;;;;;25.90;98435.00;;;;5077465;28;20098;-61